Time;durP1;ratioP1;P1;durP2;ratioP2;P2;SDS_P1;SDS_P2;PMS_P1;PMS_P2;Temp;Humidity;BMP_temperature;BMP_pressure;BME280_temperature;BME280_humidity;BME280_pressure;Samples;Min_cycle;Max_cycle;Signal;HPM_P1;HPM_P2
2023/09/30 00:02:08;;;;;;;10.80;9.10;;;;;;;;;;4923190;28;20034;-74
2023/09/30 00:04:33;;;;;;;10.07;8.93;;;;;;;;;;4958996;28;20504;-74
2023/09/30 00:07:03;;;;;;;11.00;8.60;;;;;;;;;;4959246;28;20066;-75
2023/09/30 00:09:29;;;;;;;12.13;8.80;;;;;;;;;;4957171;28;20089;-75
2023/09/30 00:11:55;;;;;;;13.20;9.38;;;;;;;;;;4944411;28;20035;-77
2023/09/30 00:14:20;;;;;;;11.70;9.10;;;;;;;;;;4967321;28;20552;-76
2023/09/30 00:16:46;;;;;;;11.20;9.32;;;;;;;;;;4971052;28;20142;-76
2023/09/30 00:19:32;;;;;;;10.90;9.50;;;;;;;;;;4965033;28;20037;-74
2023/09/30 00:21:59;;;;;;;10.05;9.05;;;;;;;;;;4969995;28;20030;-74
2023/09/30 00:24:26;;;;;;;11.98;9.38;;;;;;;;;;4965488;28;20035;-74
2023/09/30 00:26:51;;;;;;;10.35;8.70;;;;;;;;;;4968809;28;20034;-75
2023/09/30 00:29:18;;;;;;;10.40;8.73;;;;;;;;;;4960417;28;20396;-74
2023/09/30 00:31:44;;;;;;;9.55;8.60;;;;;;;;;;4964485;28;20030;-75
2023/09/30 00:34:10;;;;;;;9.52;8.55;;;;;;;;;;4964939;28;20060;-74
2023/09/30 00:36:35;;;;;;;10.60;9.07;;;;;;;;;;4964940;28;20435;-75
2023/09/30 00:39:01;;;;;;;11.13;9.20;;;;;;;;;;4963892;28;20057;-74
2023/09/30 00:41:26;;;;;;;14.40;8.90;;;;;;;;;;4965796;28;20022;-74
2023/09/30 00:43:52;;;;;;;13.23;9.98;;;;;;;;;;4966424;28;20038;-74
2023/09/30 00:46:23;;;;;;;10.88;8.77;;;;;;;;;;4966869;28;20086;-75
2023/09/30 00:48:49;;;;;;;12.93;9.02;;;;;;;;;;4970053;28;20034;-75
2023/09/30 00:51:15;;;;;;;10.85;9.68;;;;;;;;;;4950254;28;20039;-74
2023/09/30 00:53:41;;;;;;;12.07;9.38;;;;;;;;;;4965499;28;20034;-74
2023/09/30 00:56:07;;;;;;;10.13;9.13;;;;;;;;;;4964823;28;20452;-74
2023/09/30 00:58:35;;;;;;;11.20;9.00;;;;;;;;;;4965970;28;20048;-74
2023/09/30 01:01:01;;;;;;;9.82;8.88;;;;;;;;;;4970237;28;20784;-74
2023/09/30 01:03:27;;;;;;;9.90;8.90;;;;;;;;;;4967738;28;20046;-74
2023/09/30 01:05:54;;;;;;;10.25;9.20;;;;;;;;;;4965508;28;20120;-74
2023/09/30 01:08:19;;;;;;;12.73;8.95;;;;;;;;;;4966107;28;20046;-74
2023/09/30 01:10:45;;;;;;;9.85;8.95;;;;;;;;;;4964983;28;20031;-72
2023/09/30 01:13:11;;;;;;;10.00;9.00;;;;;;;;;;4963503;28;20114;-72
2023/09/30 01:15:37;;;;;;;9.27;8.38;;;;;;;;;;4966640;28;20031;-75
2023/09/30 01:18:03;;;;;;;10.60;9.55;;;;;;;;;;4964502;28;20519;-75
2023/09/30 01:20:29;;;;;;;10.45;9.45;;;;;;;;;;4962926;28;20125;-75
2023/09/30 01:22:57;;;;;;;10.10;9.20;;;;;;;;;;4967850;28;20505;-75
2023/09/30 01:25:24;;;;;;;9.60;8.70;;;;;;;;;;4960498;28;20043;-76
2023/09/30 01:27:52;;;;;;;9.55;8.75;;;;;;;;;;4954750;28;20116;-77
2023/09/30 01:30:23;;;;;;;10.35;9.35;;;;;;;;;;4965446;28;20058;-77
2023/09/30 01:32:48;;;;;;;9.13;8.43;;;;;;;;;;4971290;28;20031;-78
2023/09/30 01:35:14;;;;;;;9.38;8.50;;;;;;;;;;4951589;28;20050;-78
2023/09/30 01:37:40;;;;;;;10.55;9.20;;;;;;;;;;4969266;28;20395;-77
2023/09/30 01:40:11;;;;;;;9.10;8.30;;;;;;;;;;4963843;28;20054;-80
2023/09/30 01:42:40;;;;;;;9.40;8.38;;;;;;;;;;4973420;28;20106;-75
2023/09/30 01:45:07;;;;;;;9.60;8.70;;;;;;;;;;4955289;28;20555;-76
2023/09/30 01:47:33;;;;;;;9.23;8.57;;;;;;;;;;4968584;28;20115;-75
2023/09/30 01:50:02;;;;;;;9.40;8.50;;;;;;;;;;4966957;28;20047;-74
2023/09/30 01:52:43;;;;;;;12.25;8.50;;;;;;;;;;4970699;28;20107;-74
2023/09/30 01:55:13;;;;;;;9.30;8.50;;;;;;;;;;4972763;28;20031;-74
2023/09/30 01:57:42;;;;;;;9.73;8.82;;;;;;;;;;4967091;28;20050;-74
2023/09/30 02:00:12;;;;;;;9.65;8.80;;;;;;;;;;4971453;28;20047;-74
2023/09/30 02:03:14;;;;;;;9.70;8.75;;;;;;;;;;4970286;28;20050;-75
2023/09/30 02:05:56;;;;;;;10.77;9.43;;;;;;;;;;4958908;28;20053;-74
2023/09/30 02:08:22;;;;;;;10.43;9.40;;;;;;;;;;4972743;28;20046;-74
2023/09/30 02:10:51;;;;;;;10.38;9.27;;;;;;;;;;4964946;28;20038;-75
2023/09/30 02:13:21;;;;;;;10.45;9.23;;;;;;;;;;4967885;28;20086;-74
2023/09/30 02:15:55;;;;;;;13.25;9.70;;;;;;;;;;4949407;28;20035;-73
2023/09/30 02:18:21;;;;;;;10.93;9.90;;;;;;;;;;4965626;28;20094;-74
2023/09/30 02:20:47;;;;;;;10.40;9.38;;;;;;;;;;4965045;28;20035;-74
2023/09/30 02:23:17;;;;;;;10.75;9.77;;;;;;;;;;4948172;28;20035;-73
2023/09/30 02:25:45;;;;;;;10.73;9.70;;;;;;;;;;4963891;28;20044;-74
2023/09/30 02:36:24;;;;;;;10.38;9.48;;;;;;;;;;4875146;29;20096;-74
2023/09/30 02:39:26;;;;;;;11.55;9.82;;;;;;;;;;4856386;29;20045;-74
2023/09/30 02:41:55;;;;;;;10.68;9.68;;;;;;;;;;4858300;29;20041;-75
2023/09/30 02:44:22;;;;;;;12.75;10.52;;;;;;;;;;4875683;29;20044;-75
2023/09/30 02:46:51;;;;;;;12.20;10.35;;;;;;;;;;4844892;29;20483;-74
2023/09/30 02:49:22;;;;;;;11.93;10.75;;;;;;;;;;4880058;29;20050;-75
2023/09/30 02:51:51;;;;;;;13.77;11.02;;;;;;;;;;4863753;29;20041;-75
2023/09/30 02:54:17;;;;;;;11.87;10.40;;;;;;;;;;4860230;29;20045;-75
2023/09/30 02:56:56;;;;;;;11.30;9.73;;;;;;;;;;4873507;29;20047;-75
2023/09/30 03:06:06;;;;;;;10.18;9.18;;;;;;;;;;4852543;29;20057;-75
2023/09/30 03:08:35;;;;;;;10.23;9.20;;;;;;;;;;4841232;29;20048;-78
2023/09/30 03:11:07;;;;;;;10.88;9.52;;;;;;;;;;4867019;29;20056;-77
2023/09/30 03:13:58;;;;;;;11.93;9.50;;;;;;;;;;4924486;29;20051;-75
2023/09/30 03:17:19;;;;;;;10.40;9.32;;;;;;;;;;4929499;29;20066;-74
2023/09/30 03:19:45;;;;;;;10.25;9.27;;;;;;;;;;4840870;29;20048;-76
2023/09/30 03:25:17;;;;;;;10.80;9.57;;;;;;;;;;4852046;29;20087;-75
2023/09/30 03:27:46;;;;;;;11.15;9.57;;;;;;;;;;4846184;29;20070;-75
2023/09/30 03:30:16;;;;;;;10.63;9.55;;;;;;;;;;4847829;29;20050;-75
2023/09/30 03:32:42;;;;;;;10.15;9.15;;;;;;;;;;4850480;29;20053;-75
2023/09/30 03:35:16;;;;;;;10.75;9.60;;;;;;;;;;4847710;29;20231;-75
2023/09/30 03:37:46;;;;;;;11.63;9.63;;;;;;;;;;4849565;29;20041;-75
2023/09/30 03:40:18;;;;;;;10.77;9.77;;;;;;;;;;4832388;29;20100;-75
2023/09/30 03:43:41;;;;;;;13.02;9.57;;;;;;;;;;4836383;29;20156;-74
2023/09/30 03:46:17;;;;;;;12.40;11.10;;;;;;;;;;4795833;29;20064;-75
2023/09/30 03:49:23;;;;;;;11.38;10.27;;;;;;;;;;4796004;29;20050;-76
2023/09/30 03:52:45;;;;;;;11.45;10.27;;;;;;;;;;4728583;30;20080;-76
2023/09/30 03:55:21;;;;;;;11.38;10.38;;;;;;;;;;4713767;30;20064;-77
2023/09/30 03:57:48;;;;;;;10.60;9.73;;;;;;;;;;4778657;29;20051;-80
2023/09/30 04:00:21;;;;;;;10.93;9.38;;;;;;;;;;4778046;29;20067;-74
2023/09/30 04:03:05;;;;;;;11.40;9.70;;;;;;;;;;4781974;29;20058;-74
2023/09/30 04:06:02;;;;;;;10.23;9.32;;;;;;;;;;4766545;29;20050;-74
2023/09/30 04:08:33;;;;;;;9.77;8.88;;;;;;;;;;4799487;29;20050;-74
2023/09/30 04:11:17;;;;;;;10.48;9.45;;;;;;;;;;4796144;29;20042;-75
2023/09/30 04:14:45;;;;;;;11.13;9.43;;;;;;;;;;4799112;29;20138;-75
2023/09/30 04:17:37;;;;;;;13.20;9.63;;;;;;;;;;4852890;29;20056;-74
2023/09/30 04:20:04;;;;;;;11.18;10.23;;;;;;;;;;4850173;29;20909;-74
2023/09/30 04:22:32;;;;;;;19.35;10.63;;;;;;;;;;4865614;29;20117;-74
2023/09/30 04:24:58;;;;;;;10.77;9.68;;;;;;;;;;4861918;29;20063;-74
2023/09/30 04:27:24;;;;;;;12.85;10.77;;;;;;;;;;4863808;29;20072;-73
2023/09/30 04:29:50;;;;;;;13.50;10.02;;;;;;;;;;4992774;28;20042;-74
2023/09/30 04:32:15;;;;;;;15.65;9.70;;;;;;;;;;4992736;28;20581;-73
2023/09/30 04:34:41;;;;;;;12.63;10.15;;;;;;;;;;4996232;28;20054;-74
2023/09/30 04:37:09;;;;;;;11.30;10.00;;;;;;;;;;4991165;28;20050;-74
2023/09/30 04:39:35;;;;;;;12.38;10.02;;;;;;;;;;4993326;28;20065;-74
2023/09/30 04:42:01;;;;;;;10.15;9.25;;;;;;;;;;4990554;28;20042;-73
2023/09/30 04:44:30;;;;;;;14.10;9.98;;;;;;;;;;4989421;28;20049;-74
2023/09/30 04:46:56;;;;;;;14.70;10.00;;;;;;;;;;4994869;28;20053;-75
2023/09/30 04:49:23;;;;;;;10.70;9.60;;;;;;;;;;4991419;28;20045;-74
2023/09/30 04:51:49;;;;;;;10.63;9.52;;;;;;;;;;4991812;28;20052;-73
2023/09/30 04:54:14;;;;;;;12.27;10.07;;;;;;;;;;4960699;28;20520;-73
2023/09/30 04:56:40;;;;;;;14.30;9.55;;;;;;;;;;4959417;28;20117;-74
2023/09/30 04:59:06;;;;;;;11.10;10.00;;;;;;;;;;4960624;28;20043;-74
2023/09/30 05:01:31;;;;;;;10.63;9.63;;;;;;;;;;4967627;28;20508;-74
2023/09/30 05:03:57;;;;;;;13.70;9.48;;;;;;;;;;4964099;28;20050;-74
2023/09/30 05:06:22;;;;;;;11.18;9.05;;;;;;;;;;4973034;28;20038;-74
2023/09/30 05:08:48;;;;;;;10.90;9.80;;;;;;;;;;4967100;28;20252;-75
2023/09/30 05:11:15;;;;;;;10.13;9.23;;;;;;;;;;4961755;28;20058;-75
2023/09/30 05:13:40;;;;;;;13.38;9.50;;;;;;;;;;4964773;28;20100;-75
2023/09/30 05:16:07;;;;;;;10.10;9.10;;;;;;;;;;4962187;28;20039;-75
2023/09/30 05:18:33;;;;;;;11.10;9.40;;;;;;;;;;4962802;28;20042;-74
2023/09/30 05:20:58;;;;;;;12.90;9.90;;;;;;;;;;4966891;28;20038;-74
2023/09/30 05:23:24;;;;;;;11.40;9.50;;;;;;;;;;4971567;28;20652;-75
2023/09/30 05:25:49;;;;;;;11.15;9.40;;;;;;;;;;4960803;28;20038;-74
2023/09/30 05:28:15;;;;;;;12.65;9.52;;;;;;;;;;4959985;28;20061;-75
2023/09/30 05:30:40;;;;;;;10.48;9.32;;;;;;;;;;4962110;28;20158;-74
2023/09/30 05:33:07;;;;;;;15.23;9.80;;;;;;;;;;4960904;28;20108;-75
2023/09/30 05:35:32;;;;;;;12.60;9.73;;;;;;;;;;4963018;28;20503;-75
2023/09/30 05:37:58;;;;;;;12.32;9.90;;;;;;;;;;4945489;28;20035;-74
2023/09/30 05:40:25;;;;;;;11.13;9.85;;;;;;;;;;4961007;28;20137;-75
2023/09/30 05:42:55;;;;;;;13.48;9.85;;;;;;;;;;4963147;28;20027;-75
2023/09/30 05:45:23;;;;;;;11.15;10.05;;;;;;;;;;4965749;28;20097;-74
2023/09/30 05:47:49;;;;;;;15.77;9.90;;;;;;;;;;4965703;28;20033;-75
2023/09/30 05:50:16;;;;;;;11.60;10.00;;;;;;;;;;4965179;28;20369;-74
2023/09/30 05:52:43;;;;;;;11.52;9.52;;;;;;;;;;4966982;28;20039;-74
2023/09/30 05:55:09;;;;;;;11.30;10.27;;;;;;;;;;4960258;28;20035;-74
2023/09/30 05:57:35;;;;;;;12.40;10.20;;;;;;;;;;4965728;28;20045;-74
2023/09/30 06:00:01;;;;;;;11.65;10.10;;;;;;;;;;4965041;28;20062;-75
2023/09/30 06:02:26;;;;;;;10.38;9.52;;;;;;;;;;4964296;28;20062;-74
2023/09/30 06:04:53;;;;;;;12.40;10.13;;;;;;;;;;4965167;28;20493;-75
2023/09/30 06:07:20;;;;;;;11.73;9.90;;;;;;;;;;4964413;28;20049;-73
2023/09/30 06:09:48;;;;;;;12.10;10.35;;;;;;;;;;4964852;28;20485;-75
2023/09/30 06:12:13;;;;;;;14.55;10.65;;;;;;;;;;4965102;28;20037;-75
2023/09/30 06:14:40;;;;;;;11.90;9.88;;;;;;;;;;4964286;28;20026;-74
2023/09/30 06:17:07;;;;;;;12.60;9.75;;;;;;;;;;4964264;28;20065;-72
2023/09/30 06:19:32;;;;;;;9.20;8.43;;;;;;;;;;4960995;28;20039;-76
2023/09/30 06:21:59;;;;;;;12.63;9.50;;;;;;;;;;4933712;28;20504;-75
2023/09/30 06:24:24;;;;;;;10.65;9.35;;;;;;;;;;4964540;28;20037;-74
2023/09/30 06:26:50;;;;;;;10.68;9.60;;;;;;;;;;4956927;28;20031;-74
2023/09/30 06:29:17;;;;;;;13.43;9.55;;;;;;;;;;4963544;28;20093;-74
2023/09/30 06:31:43;;;;;;;12.23;9.70;;;;;;;;;;4961950;28;20042;-74
2023/09/30 06:34:11;;;;;;;10.73;9.45;;;;;;;;;;4963780;28;20035;-74
2023/09/30 06:36:37;;;;;;;12.38;9.50;;;;;;;;;;4964798;28;20035;-75
2023/09/30 06:39:05;;;;;;;10.10;9.23;;;;;;;;;;4964556;28;20046;-74
2023/09/30 06:41:31;;;;;;;12.07;10.27;;;;;;;;;;4958057;28;20169;-74
2023/09/30 06:43:57;;;;;;;12.20;9.85;;;;;;;;;;4963384;28;20133;-76
2023/09/30 06:46:23;;;;;;;13.35;9.25;;;;;;;;;;4964691;28;20035;-75
2023/09/30 06:48:52;;;;;;;14.52;9.57;;;;;;;;;;4964657;28;20113;-75
2023/09/30 06:51:17;;;;;;;14.95;10.73;;;;;;;;;;4961574;28;20493;-75
2023/09/30 06:53:43;;;;;;;11.70;10.20;;;;;;;;;;4964352;28;20038;-75
2023/09/30 06:56:09;;;;;;;14.38;10.10;;;;;;;;;;4959157;28;20038;-75
2023/09/30 06:58:35;;;;;;;11.65;10.05;;;;;;;;;;4964549;28;20054;-75
2023/09/30 07:01:01;;;;;;;11.77;10.38;;;;;;;;;;4957304;28;20034;-73
2023/09/30 07:03:26;;;;;;;13.95;9.95;;;;;;;;;;4960266;28;20045;-74
2023/09/30 07:05:54;;;;;;;10.85;9.70;;;;;;;;;;4962722;28;20042;-75
2023/09/30 07:08:21;;;;;;;12.38;9.75;;;;;;;;;;4947737;28;20042;-75
2023/09/30 07:10:49;;;;;;;13.82;9.38;;;;;;;;;;4965790;28;20030;-75
2023/09/30 07:13:16;;;;;;;13.77;9.93;;;;;;;;;;4962739;28;20034;-73
2023/09/30 07:15:42;;;;;;;11.63;9.52;;;;;;;;;;4963101;28;20381;-74
2023/09/30 07:18:08;;;;;;;13.95;9.27;;;;;;;;;;4954132;28;20174;-75
2023/09/30 07:20:34;;;;;;;12.30;9.52;;;;;;;;;;4956116;28;20489;-75
2023/09/30 07:23:03;;;;;;;11.07;9.40;;;;;;;;;;4961462;28;20042;-75
2023/09/30 07:25:31;;;;;;;12.05;10.07;;;;;;;;;;4963312;28;20180;-76
2023/09/30 07:28:00;;;;;;;11.63;9.93;;;;;;;;;;4962213;28;20049;-77
2023/09/30 07:30:26;;;;;;;13.23;9.60;;;;;;;;;;4961203;28;20038;-77
2023/09/30 07:32:52;;;;;;;12.80;9.50;;;;;;;;;;4965158;28;20034;-77
2023/09/30 07:35:18;;;;;;;11.10;9.73;;;;;;;;;;4963350;28;20038;-76
2023/09/30 07:37:44;;;;;;;10.50;9.38;;;;;;;;;;4957660;28;20485;-76
2023/09/30 07:40:10;;;;;;;13.95;10.05;;;;;;;;;;4963677;28;20045;-76
2023/09/30 07:42:36;;;;;;;11.35;9.55;;;;;;;;;;4963506;28;20037;-75
2023/09/30 07:45:39;;;;;;;10.30;9.30;;;;;;;;;;4975490;28;20039;-74
2023/09/30 07:48:14;;;;;;;12.27;9.38;;;;;;;;;;4983830;28;20494;-74
2023/09/30 07:51:15;;;;;;;9.82;8.85;;;;;;;;;;4975910;28;20093;-74
2023/09/30 07:53:40;;;;;;;12.32;9.25;;;;;;;;;;4964973;28;20027;-75
2023/09/30 07:56:06;;;;;;;10.25;8.98;;;;;;;;;;4961785;28;20093;-75
2023/09/30 07:58:33;;;;;;;12.18;9.25;;;;;;;;;;4963634;28;20039;-76
2023/09/30 08:00:58;;;;;;;16.10;9.20;;;;;;;;;;4963600;28;20033;-75
2023/09/30 08:03:24;;;;;;;12.07;9.07;;;;;;;;;;4950051;28;20126;-76
2023/09/30 08:05:50;;;;;;;9.82;8.82;;;;;;;;;;4965417;28;20998;-74
2023/09/30 08:08:16;;;;;;;11.52;8.57;;;;;;;;;;4960230;28;20062;-74
2023/09/30 08:10:42;;;;;;;9.38;8.43;;;;;;;;;;4962925;28;20594;-75
2023/09/30 08:13:09;;;;;;;11.57;8.40;;;;;;;;;;4962057;28;20101;-75
2023/09/30 08:15:35;;;;;;;10.20;8.60;;;;;;;;;;4960088;28;20497;-74
2023/09/30 08:18:02;;;;;;;10.32;8.40;;;;;;;;;;4962322;28;20038;-75
2023/09/30 08:20:28;;;;;;;13.38;8.50;;;;;;;;;;4964200;28;20078;-76
2023/09/30 08:22:53;;;;;;;10.10;9.07;;;;;;;;;;4960114;28;20070;-74
2023/09/30 08:25:19;;;;;;;9.35;8.43;;;;;;;;;;4965548;28;20039;-77
2023/09/30 08:27:49;;;;;;;11.50;9.35;;;;;;;;;;4967541;28;20045;-74
2023/09/30 08:30:15;;;;;;;9.75;8.02;;;;;;;;;;4960624;28;20038;-75
2023/09/30 08:32:41;;;;;;;10.05;9.10;;;;;;;;;;4959670;28;20085;-75
2023/09/30 08:35:07;;;;;;;11.23;8.50;;;;;;;;;;4959554;28;20050;-75
2023/09/30 08:37:33;;;;;;;9.90;8.90;;;;;;;;;;4964018;28;20038;-75
2023/09/30 08:39:59;;;;;;;10.27;8.98;;;;;;;;;;4948001;28;20035;-75
2023/09/30 08:42:32;;;;;;;10.45;8.45;;;;;;;;;;4964529;28;20031;-75
2023/09/30 08:44:58;;;;;;;9.02;8.23;;;;;;;;;;4961235;28;20047;-75
2023/09/30 08:47:27;;;;;;;9.15;8.25;;;;;;;;;;4963306;28;20487;-74
2023/09/30 08:49:56;;;;;;;;;;;;;;;;;;4959972;28;20066;-75
2023/09/30 08:52:23;;;;;;;8.82;7.97;;;;;;;;;;4965401;28;19918;-75
2023/09/30 08:54:48;;;;;;;9.70;8.48;;;;;;;;;;4951589;28;20563;-74
2023/09/30 08:57:15;;;;;;;11.82;8.95;;;;;;;;;;4951555;28;20108;-76
2023/09/30 08:59:41;;;;;;;9.23;8.27;;;;;;;;;;4958733;28;20058;-74
2023/09/30 09:02:09;;;;;;;8.70;8.00;;;;;;;;;;4955789;28;20390;-74
2023/09/30 09:04:36;;;;;;;10.13;8.27;;;;;;;;;;4958144;28;20699;-76
2023/09/30 09:07:02;;;;;;;9.30;8.23;;;;;;;;;;4958919;28;20053;-76
2023/09/30 09:09:28;;;;;;;10.23;8.48;;;;;;;;;;4954847;28;20155;-74
2023/09/30 09:11:54;;;;;;;8.90;8.10;;;;;;;;;;4954276;28;20640;-76
2023/09/30 09:14:35;;;;;;;10.23;8.05;;;;;;;;;;4958014;28;20796;-72
2023/09/30 09:17:01;;;;;;;8.48;7.72;;;;;;;;;;4954825;28;20035;-74
2023/09/30 09:19:26;;;;;;;9.60;8.52;;;;;;;;;;4963353;28;20041;-73
2023/09/30 09:21:57;;;;;;;10.65;8.63;;;;;;;;;;4961896;28;20038;-74
2023/09/30 09:24:36;;;;;;;10.20;7.90;;;;;;;;;;4961183;28;20108;-75
2023/09/30 09:27:06;;;;;;;;;;;;;;;;;;4955358;28;20057;-73
2023/09/30 09:29:33;;;;;;;9.32;8.13;;;;;;;;;;4960591;28;19914;-76
2023/09/30 09:32:15;;;;;;;9.77;8.63;;;;;;;;;;4945486;28;20650;-76
2023/09/30 09:34:43;;;;;;;13.35;8.30;;;;;;;;;;4961546;28;20385;-75
2023/09/30 09:37:22;;;;;;;10.07;8.15;;;;;;;;;;4960429;28;20096;-76
2023/09/30 09:39:56;;;;;;;8.93;8.13;;;;;;;;;;4964141;28;20125;-75
2023/09/30 09:42:32;;;;;;;8.90;8.05;;;;;;;;;;4964193;28;20065;-74
2023/09/30 09:45:15;;;;;;;8.48;7.78;;;;;;;;;;4961280;28;20038;-72
2023/09/30 09:47:54;;;;;;;8.65;7.65;;;;;;;;;;4970483;28;20038;-73
2023/09/30 09:50:25;;;;;;;8.90;8.07;;;;;;;;;;4975669;28;20114;-73
2023/09/30 09:52:54;;;;;;;8.63;7.72;;;;;;;;;;4964989;28;20129;-76
2023/09/30 09:55:22;;;;;;;14.07;8.13;;;;;;;;;;4952845;28;20692;-76
2023/09/30 09:57:48;;;;;;;8.73;7.83;;;;;;;;;;4962101;28;20034;-75
2023/09/30 10:00:23;;;;;;;9.63;8.00;;;;;;;;;;4962755;28;20118;-74
2023/09/30 10:02:50;;;;;;;8.95;8.20;;;;;;;;;;4977432;28;20030;-75
2023/09/30 10:05:17;;;;;;;9.00;8.10;;;;;;;;;;4962119;28;20045;-76
2023/09/30 10:07:57;;;;;;;8.50;7.53;;;;;;;;;;4961458;28;20124;-73
2023/09/30 10:10:25;;;;;;;10.57;8.25;;;;;;;;;;4960439;28;20400;-74
2023/09/30 10:12:50;;;;;;;10.27;7.90;;;;;;;;;;4962134;28;20644;-76
2023/09/30 10:15:37;;;;;;;9.35;8.45;;;;;;;;;;4961058;28;20539;-75
2023/09/30 10:18:10;;;;;;;10.48;8.43;;;;;;;;;;4963565;28;20046;-76
2023/09/30 10:20:47;;;;;;;9.18;8.23;;;;;;;;;;4963657;28;20045;-76
2023/09/30 10:23:24;;;;;;;9.68;8.68;;;;;;;;;;4959441;28;20051;-74
2023/09/30 10:26:17;;;;;;;10.40;8.10;;;;;;;;;;4962199;28;20404;-76
2023/09/30 10:28:47;;;;;;;9.98;8.55;;;;;;;;;;4960174;28;20564;-73
2023/09/30 10:31:24;;;;;;;13.00;9.52;;;;;;;;;;4961640;28;20045;-76
2023/09/30 10:34:19;;;;;;;11.30;9.02;;;;;;;;;;4958773;28;20031;-76
2023/09/30 10:36:46;;;;;;;10.20;8.80;;;;;;;;;;4962897;28;20047;-74
2023/09/30 10:39:13;;;;;;;10.50;9.40;;;;;;;;;;4960925;28;20038;-76
2023/09/30 10:41:39;;;;;;;11.45;9.57;;;;;;;;;;4966830;28;20043;-73
2023/09/30 10:44:35;;;;;;;12.82;9.80;;;;;;;;;;4965027;28;20053;-73
2023/09/30 10:47:24;;;;;;;19.30;9.32;;;;;;;;;;4964072;28;20624;-76
2023/09/30 10:49:49;;;;;;;10.48;9.05;;;;;;;;;;4960186;28;20042;-75
2023/09/30 10:52:25;;;;;;;12.98;9.77;;;;;;;;;;4968391;28;20541;-77
2023/09/30 10:54:51;;;;;;;11.38;9.07;;;;;;;;;;4964102;28;20034;-77
2023/09/30 10:57:28;;;;;;;10.63;9.63;;;;;;;;;;4963148;28;20060;-76
2023/09/30 11:00:11;;;;;;;12.70;9.48;;;;;;;;;;4963397;28;20042;-74
2023/09/30 11:02:57;;;;;;;13.13;9.23;;;;;;;;;;4964237;28;20657;-76
2023/09/30 11:05:23;;;;;;;11.15;9.20;;;;;;;;;;4957582;28;20061;-74
2023/09/30 11:07:50;;;;;;;9.82;8.63;;;;;;;;;;4959430;28;20039;-76
2023/09/30 11:10:18;;;;;;;12.00;8.80;;;;;;;;;;4963063;28;20054;-75
2023/09/30 11:12:57;;;;;;;10.43;8.38;;;;;;;;;;4963308;28;20062;-77
2023/09/30 11:15:23;;;;;;;9.10;8.20;;;;;;;;;;4964159;28;20034;-75
2023/09/30 11:17:52;;;;;;;9.65;8.63;;;;;;;;;;4966089;28;20043;-76
2023/09/30 11:20:18;;;;;;;12.00;9.32;;;;;;;;;;4957724;28;20042;-76
2023/09/30 11:22:45;;;;;;;10.27;8.57;;;;;;;;;;4979518;28;20118;-76
2023/09/30 11:25:18;;;;;;;10.80;8.80;;;;;;;;;;4960051;28;20078;-75
2023/09/30 11:27:44;;;;;;;11.15;9.00;;;;;;;;;;4965971;28;20058;-76
2023/09/30 11:30:12;;;;;;;10.35;8.85;;;;;;;;;;4969944;28;20031;-75
2023/09/30 11:32:38;;;;;;;11.30;9.20;;;;;;;;;;4979161;28;20130;-73
2023/09/30 11:35:09;;;;;;;11.90;9.30;;;;;;;;;;4974747;28;20124;-76
2023/09/30 11:37:35;;;;;;;10.50;8.73;;;;;;;;;;4957847;28;20042;-75
2023/09/30 11:40:13;;;;;;;12.25;9.70;;;;;;;;;;4963255;28;20115;-76
2023/09/30 11:42:39;;;;;;;13.65;10.07;;;;;;;;;;4963760;28;20118;-74
2023/09/30 11:45:20;;;;;;;11.82;10.23;;;;;;;;;;4962696;28;20130;-74
2023/09/30 11:47:46;;;;;;;11.35;10.20;;;;;;;;;;4962939;28;20045;-77
2023/09/30 11:50:12;;;;;;;13.82;11.00;;;;;;;;;;4963009;28;20038;-75
2023/09/30 11:52:40;;;;;;;12.73;9.60;;;;;;;;;;4959241;28;20253;-76
2023/09/30 11:55:06;;;;;;;16.35;10.20;;;;;;;;;;4959904;28;20039;-74
2023/09/30 11:57:31;;;;;;;12.85;10.30;;;;;;;;;;4960215;28;20057;-74
2023/09/30 11:59:57;;;;;;;12.00;9.65;;;;;;;;;;4964098;28;20145;-77
2023/09/30 12:02:22;;;;;;;13.98;9.52;;;;;;;;;;4960166;28;20043;-75
2023/09/30 12:04:48;;;;;;;13.13;10.00;;;;;;;;;;4961258;28;20039;-76
2023/09/30 12:07:13;;;;;;;12.55;9.50;;;;;;;;;;4963717;28;20108;-76
2023/09/30 12:09:39;;;;;;;13.15;10.02;;;;;;;;;;4964375;28;20047;-76
2023/09/30 12:12:09;;;;;;;13.55;10.27;;;;;;;;;;4962523;28;20093;-74
2023/09/30 12:14:35;;;;;;;13.23;11.13;;;;;;;;;;4948741;28;20464;-76
2023/09/30 12:17:00;;;;;;;12.68;9.50;;;;;;;;;;4965028;28;20038;-76
2023/09/30 12:19:26;;;;;;;11.57;9.35;;;;;;;;;;4963045;28;20049;-73
2023/09/30 12:21:52;;;;;;;12.00;9.38;;;;;;;;;;4960688;28;20101;-77
2023/09/30 12:24:19;;;;;;;12.07;9.80;;;;;;;;;;4960292;28;20045;-75
2023/09/30 12:26:48;;;;;;;12.15;9.90;;;;;;;;;;4960163;28;20077;-76
2023/09/30 12:29:23;;;;;;;;;;;;;;;;;;4962262;28;20042;-74
2023/09/30 12:31:50;;;;;;;11.02;9.80;;;;;;;;;;4962591;28;19926;-74
2023/09/30 12:34:19;;;;;;;14.20;10.20;;;;;;;;;;4964036;28;20405;-74
2023/09/30 12:36:44;;;;;;;13.75;10.05;;;;;;;;;;4963976;28;20042;-77
2023/09/30 12:39:10;;;;;;;13.40;10.07;;;;;;;;;;4946831;28;20062;-75
2023/09/30 12:41:40;;;;;;;13.13;10.43;;;;;;;;;;4961898;28;20023;-75
2023/09/30 12:44:06;;;;;;;12.10;10.27;;;;;;;;;;4963783;28;20047;-75
2023/09/30 12:46:34;;;;;;;11.20;10.05;;;;;;;;;;4963116;28;20120;-75
2023/09/30 12:49:07;;;;;;;13.15;10.57;;;;;;;;;;4945731;28;20039;-75
2023/09/30 12:51:33;;;;;;;12.05;10.60;;;;;;;;;;4962649;28;20122;-75
2023/09/30 12:54:00;;;;;;;12.70;10.70;;;;;;;;;;4950063;28;20042;-74
2023/09/30 12:56:26;;;;;;;13.82;10.45;;;;;;;;;;4967671;28;20114;-75
2023/09/30 12:58:52;;;;;;;12.27;10.43;;;;;;;;;;4968244;28;20162;-74
2023/09/30 13:01:18;;;;;;;15.13;10.32;;;;;;;;;;4969292;28;20034;-73
2023/09/30 13:03:47;;;;;;;13.32;10.07;;;;;;;;;;4970769;28;20038;-73
2023/09/30 13:06:13;;;;;;;10.80;9.70;;;;;;;;;;4974451;28;20026;-74
2023/09/30 13:08:38;;;;;;;10.95;9.70;;;;;;;;;;4970121;28;20035;-75
2023/09/30 13:11:04;;;;;;;12.32;10.10;;;;;;;;;;4967278;28;20130;-75
2023/09/30 13:13:33;;;;;;;11.88;9.98;;;;;;;;;;4965621;28;20161;-73
2023/09/30 13:16:05;;;;;;;;;;;;;;;;;;4964944;28;20728;-75
2023/09/30 13:18:32;;;;;;;10.88;9.45;;;;;;;;;;4967257;28;19926;-76
2023/09/30 13:20:58;;;;;;;11.05;9.48;;;;;;;;;;4967056;28;20110;-75
2023/09/30 13:23:23;;;;;;;11.00;9.88;;;;;;;;;;4963768;28;20125;-75
2023/09/30 13:25:49;;;;;;;11.13;9.43;;;;;;;;;;4967712;28;20409;-75
2023/09/30 13:28:14;;;;;;;12.43;9.88;;;;;;;;;;4960919;28;20027;-72
2023/09/30 13:30:40;;;;;;;10.90;9.23;;;;;;;;;;4963858;28;20405;-74
2023/09/30 13:33:06;;;;;;;12.75;10.00;;;;;;;;;;4962968;28;20129;-75
2023/09/30 13:35:32;;;;;;;13.23;10.05;;;;;;;;;;4967221;28;20082;-76
2023/09/30 13:37:58;;;;;;;11.52;9.75;;;;;;;;;;4966715;28;20112;-74
2023/09/30 13:40:23;;;;;;;11.07;9.70;;;;;;;;;;4956776;28;20026;-77
2023/09/30 13:42:49;;;;;;;11.52;9.68;;;;;;;;;;4949954;28;20089;-76
2023/09/30 13:45:19;;;;;;;11.18;9.95;;;;;;;;;;4965856;28;20121;-74
2023/09/30 13:47:44;;;;;;;13.35;9.52;;;;;;;;;;4958455;28;20042;-75
2023/09/30 13:50:10;;;;;;;13.07;9.98;;;;;;;;;;4947755;28;20432;-76
2023/09/30 13:52:36;;;;;;;12.73;10.05;;;;;;;;;;4965748;28;20031;-76
2023/09/30 13:55:03;;;;;;;12.63;9.90;;;;;;;;;;4947221;28;20043;-76
2023/09/30 13:57:28;;;;;;;13.25;10.23;;;;;;;;;;4956375;28;20550;-75
2023/09/30 13:59:55;;;;;;;11.90;10.65;;;;;;;;;;4956543;28;20047;-76
2023/09/30 14:02:20;;;;;;;14.15;10.50;;;;;;;;;;4958179;28;20028;-76
2023/09/30 14:04:46;;;;;;;13.80;10.70;;;;;;;;;;4961650;28;20043;-77
2023/09/30 14:07:12;;;;;;;13.48;10.75;;;;;;;;;;4964648;28;20480;-73
2023/09/30 14:09:38;;;;;;;11.05;9.93;;;;;;;;;;4961060;28;20038;-76
2023/09/30 14:12:04;;;;;;;10.95;9.85;;;;;;;;;;4962706;28;20132;-76
2023/09/30 14:14:36;;;;;;;14.73;10.55;;;;;;;;;;4964404;28;20485;-76
2023/09/30 14:17:10;;;;;;;11.07;9.98;;;;;;;;;;4972385;28;20527;-76
2023/09/30 14:19:36;;;;;;;12.85;11.00;;;;;;;;;;4960114;28;20110;-76
2023/09/30 14:22:04;;;;;;;12.95;9.88;;;;;;;;;;4965034;28;20042;-76
2023/09/30 14:25:13;;;;;;;11.68;10.43;;;;;;;;;;4953548;28;20039;-76
2023/09/30 14:27:49;;;;;;;13.60;11.07;;;;;;;;;;4968165;28;20222;-75
2023/09/30 14:30:20;;;;;;;13.10;10.68;;;;;;;;;;4959999;28;20408;-75
2023/09/30 14:32:49;;;;;;;12.07;10.10;;;;;;;;;;4970369;28;20042;-75
2023/09/30 14:35:15;;;;;;;13.65;10.88;;;;;;;;;;4943704;28;20102;-76
2023/09/30 14:37:41;;;;;;;12.80;10.13;;;;;;;;;;4964963;28;20043;-74
2023/09/30 14:40:10;;;;;;;13.05;10.07;;;;;;;;;;4962734;28;20361;-74
2023/09/30 14:42:41;;;;;;;10.25;9.30;;;;;;;;;;4967948;28;20034;-74
2023/09/30 14:45:08;;;;;;;13.43;9.52;;;;;;;;;;4952293;28;20566;-76
2023/09/30 14:47:34;;;;;;;14.75;10.05;;;;;;;;;;4962966;28;20117;-76
2023/09/30 14:50:01;;;;;;;12.52;9.73;;;;;;;;;;4946777;28;20050;-75
2023/09/30 14:52:28;;;;;;;12.20;9.70;;;;;;;;;;4961420;28;20057;-75
2023/09/30 14:54:54;;;;;;;10.73;9.55;;;;;;;;;;4953180;28;20039;-75
2023/09/30 14:57:21;;;;;;;11.75;9.23;;;;;;;;;;4957434;28;20089;-77
2023/09/30 14:59:46;;;;;;;10.73;9.63;;;;;;;;;;4960840;28;20051;-77
2023/09/30 15:02:12;;;;;;;12.80;9.95;;;;;;;;;;4937614;28;20444;-76
2023/09/30 15:04:38;;;;;;;11.35;9.63;;;;;;;;;;4966308;28;20035;-75